sensor_id;sensor_type;location;lat;lon;timestamp;P1;durP1;ratioP1;P2;durP2;ratioP2
58468;SDS011;44257;44.804;10.220;2023-07-31T00:00:34;7.88;;;4.63;;
58468;SDS011;44257;44.804;10.220;2023-07-31T00:03:00;6.18;;;4.25;;
58468;SDS011;44257;44.804;10.220;2023-07-31T00:05:25;7.63;;;4.22;;
58468;SDS011;44257;44.804;10.220;2023-07-31T00:07:51;8.15;;;4.90;;
58468;SDS011;44257;44.804;10.220;2023-07-31T00:10:19;6.90;;;4.60;;
58468;SDS011;44257;44.804;10.220;2023-07-31T00:12:45;5.70;;;4.78;;
58468;SDS011;44257;44.804;10.220;2023-07-31T00:15:11;8.05;;;4.90;;
58468;SDS011;44257;44.804;10.220;2023-07-31T00:17:38;6.18;;;4.85;;
58468;SDS011;44257;44.804;10.220;2023-07-31T00:20:04;6.88;;;4.88;;
58468;SDS011;44257;44.804;10.220;2023-07-31T00:22:30;8.35;;;5.20;;
58468;SDS011;44257;44.804;10.220;2023-07-31T00:24:56;7.68;;;5.40;;
58468;SDS011;44257;44.804;10.220;2023-07-31T00:27:22;6.85;;;5.30;;
58468;SDS011;44257;44.804;10.220;2023-07-31T00:29:49;9.23;;;5.22;;
58468;SDS011;44257;44.804;10.220;2023-07-31T00:32:15;10.10;;;5.50;;
58468;SDS011;44257;44.804;10.220;2023-07-31T00:34:41;7.18;;;5.30;;
58468;SDS011;44257;44.804;10.220;2023-07-31T00:37:06;7.25;;;4.43;;
58468;SDS011;44257;44.804;10.220;2023-07-31T00:39:35;7.13;;;4.75;;
58468;SDS011;44257;44.804;10.220;2023-07-31T00:42:01;6.55;;;4.47;;
58468;SDS011;44257;44.804;10.220;2023-07-31T00:44:27;8.05;;;5.05;;
58468;SDS011;44257;44.804;10.220;2023-07-31T00:46:53;7.25;;;4.72;;
58468;SDS011;44257;44.804;10.220;2023-07-31T00:49:20;9.25;;;4.50;;
58468;SDS011;44257;44.804;10.220;2023-07-31T00:51:46;6.50;;;4.43;;
58468;SDS011;44257;44.804;10.220;2023-07-31T00:54:12;5.63;;;4.80;;
58468;SDS011;44257;44.804;10.220;2023-07-31T00:56:38;5.47;;;4.18;;
58468;SDS011;44257;44.804;10.220;2023-07-31T00:59:07;5.90;;;4.25;;
58468;SDS011;44257;44.804;10.220;2023-07-31T01:01:33;4.13;;;3.63;;
58468;SDS011;44257;44.804;10.220;2023-07-31T01:03:59;5.95;;;4.13;;
58468;SDS011;44257;44.804;10.220;2023-07-31T01:06:44;5.93;;;4.95;;
58468;SDS011;44257;44.804;10.220;2023-07-31T01:12:06;6.72;;;4.50;;
58468;SDS011;44257;44.804;10.220;2023-07-31T01:14:32;8.80;;;5.05;;
58468;SDS011;44257;44.804;10.220;2023-07-31T01:17:07;9.55;;;5.00;;
58468;SDS011;44257;44.804;10.220;2023-07-31T01:19:33;7.35;;;5.03;;
58468;SDS011;44257;44.804;10.220;2023-07-31T01:27:12;6.95;;;4.65;;
58468;SDS011;44257;44.804;10.220;2023-07-31T01:29:49;7.60;;;4.47;;
58468;SDS011;44257;44.804;10.220;2023-07-31T01:32:24;10.98;;;5.43;;
58468;SDS011;44257;44.804;10.220;2023-07-31T01:34:51;9.50;;;5.18;;
58468;SDS011;44257;44.804;10.220;2023-07-31T01:37:18;6.82;;;4.90;;
58468;SDS011;44257;44.804;10.220;2023-07-31T01:39:44;7.75;;;5.10;;
58468;SDS011;44257;44.804;10.220;2023-07-31T01:42:10;8.43;;;5.05;;
58468;SDS011;44257;44.804;10.220;2023-07-31T01:44:36;7.85;;;5.40;;
58468;SDS011;44257;44.804;10.220;2023-07-31T01:47:04;7.28;;;5.47;;
58468;SDS011;44257;44.804;10.220;2023-07-31T01:49:31;12.13;;;6.18;;
58468;SDS011;44257;44.804;10.220;2023-07-31T01:51:57;8.13;;;5.50;;
58468;SDS011;44257;44.804;10.220;2023-07-31T01:54:23;7.85;;;6.05;;
58468;SDS011;44257;44.804;10.220;2023-07-31T01:56:49;8.02;;;5.85;;
58468;SDS011;44257;44.804;10.220;2023-07-31T01:59:15;8.60;;;5.68;;
58468;SDS011;44257;44.804;10.220;2023-07-31T02:01:41;7.32;;;5.68;;
58468;SDS011;44257;44.804;10.220;2023-07-31T02:04:07;8.45;;;5.70;;
58468;SDS011;44257;44.804;10.220;2023-07-31T02:06:34;8.90;;;5.25;;
58468;SDS011;44257;44.804;10.220;2023-07-31T02:09:00;6.05;;;4.40;;
58468;SDS011;44257;44.804;10.220;2023-07-31T02:11:26;6.50;;;5.07;;
58468;SDS011;44257;44.804;10.220;2023-07-31T02:13:52;5.85;;;4.78;;
58468;SDS011;44257;44.804;10.220;2023-07-31T02:16:17;6.20;;;5.03;;
58468;SDS011;44257;44.804;10.220;2023-07-31T02:18:43;8.55;;;5.63;;
58468;SDS011;44257;44.804;10.220;2023-07-31T02:21:09;8.00;;;5.15;;
58468;SDS011;44257;44.804;10.220;2023-07-31T02:23:35;8.45;;;4.78;;
58468;SDS011;44257;44.804;10.220;2023-07-31T02:26:01;5.40;;;4.55;;
58468;SDS011;44257;44.804;10.220;2023-07-31T02:28:26;7.65;;;4.50;;
58468;SDS011;44257;44.804;10.220;2023-07-31T02:30:52;6.18;;;4.32;;
58468;SDS011;44257;44.804;10.220;2023-07-31T02:33:18;7.50;;;4.50;;
58468;SDS011;44257;44.804;10.220;2023-07-31T02:35:45;5.57;;;4.07;;
58468;SDS011;44257;44.804;10.220;2023-07-31T02:38:11;6.30;;;4.45;;
58468;SDS011;44257;44.804;10.220;2023-07-31T02:40:39;5.75;;;4.28;;
58468;SDS011;44257;44.804;10.220;2023-07-31T02:43:06;6.55;;;4.28;;
58468;SDS011;44257;44.804;10.220;2023-07-31T02:45:32;7.75;;;4.68;;
58468;SDS011;44257;44.804;10.220;2023-07-31T02:47:58;6.63;;;4.00;;
58468;SDS011;44257;44.804;10.220;2023-07-31T02:50:24;6.25;;;4.47;;
58468;SDS011;44257;44.804;10.220;2023-07-31T02:52:50;5.88;;;4.40;;
58468;SDS011;44257;44.804;10.220;2023-07-31T02:55:16;6.68;;;3.88;;
58468;SDS011;44257;44.804;10.220;2023-07-31T02:57:41;5.65;;;4.32;;
58468;SDS011;44257;44.804;10.220;2023-07-31T03:00:07;4.90;;;3.63;;
58468;SDS011;44257;44.804;10.220;2023-07-31T03:02:34;5.30;;;4.38;;
58468;SDS011;44257;44.804;10.220;2023-07-31T03:05:01;7.88;;;4.18;;
58468;SDS011;44257;44.804;10.220;2023-07-31T03:07:26;5.20;;;3.95;;
58468;SDS011;44257;44.804;10.220;2023-07-31T03:09:52;6.22;;;4.38;;
58468;SDS011;44257;44.804;10.220;2023-07-31T03:12:19;8.63;;;5.07;;
58468;SDS011;44257;44.804;10.220;2023-07-31T03:14:45;7.03;;;4.32;;
58468;SDS011;44257;44.804;10.220;2023-07-31T03:17:11;6.10;;;4.45;;
58468;SDS011;44257;44.804;10.220;2023-07-31T03:19:37;5.70;;;4.18;;
58468;SDS011;44257;44.804;10.220;2023-07-31T03:22:03;5.45;;;4.15;;
58468;SDS011;44257;44.804;10.220;2023-07-31T03:24:29;6.35;;;4.25;;
58468;SDS011;44257;44.804;10.220;2023-07-31T03:26:55;6.00;;;4.20;;
58468;SDS011;44257;44.804;10.220;2023-07-31T03:29:21;6.05;;;4.22;;
58468;SDS011;44257;44.804;10.220;2023-07-31T03:31:47;5.63;;;4.30;;
58468;SDS011;44257;44.804;10.220;2023-07-31T03:34:13;5.30;;;4.70;;
58468;SDS011;44257;44.804;10.220;2023-07-31T03:36:38;7.53;;;4.68;;
58468;SDS011;44257;44.804;10.220;2023-07-31T03:39:05;7.18;;;4.25;;
58468;SDS011;44257;44.804;10.220;2023-07-31T03:41:31;7.22;;;4.05;;
58468;SDS011;44257;44.804;10.220;2023-07-31T03:43:57;5.68;;;4.28;;
58468;SDS011;44257;44.804;10.220;2023-07-31T03:46:23;5.43;;;4.18;;
58468;SDS011;44257;44.804;10.220;2023-07-31T03:48:49;6.10;;;4.85;;
58468;SDS011;44257;44.804;10.220;2023-07-31T03:51:16;5.53;;;4.07;;
58468;SDS011;44257;44.804;10.220;2023-07-31T03:53:43;7.10;;;4.47;;
58468;SDS011;44257;44.804;10.220;2023-07-31T03:56:09;6.88;;;5.13;;
58468;SDS011;44257;44.804;10.220;2023-07-31T03:58:35;7.05;;;4.57;;
58468;SDS011;44257;44.804;10.220;2023-07-31T04:01:02;7.13;;;4.63;;
58468;SDS011;44257;44.804;10.220;2023-07-31T04:03:29;8.38;;;5.03;;
58468;SDS011;44257;44.804;10.220;2023-07-31T04:05:55;6.40;;;4.63;;
58468;SDS011;44257;44.804;10.220;2023-07-31T04:08:21;7.82;;;4.55;;
58468;SDS011;44257;44.804;10.220;2023-07-31T04:10:48;5.75;;;4.60;;
58468;SDS011;44257;44.804;10.220;2023-07-31T04:13:14;6.32;;;4.25;;
58468;SDS011;44257;44.804;10.220;2023-07-31T04:15:40;7.18;;;4.95;;
58468;SDS011;44257;44.804;10.220;2023-07-31T04:18:06;5.60;;;4.65;;
58468;SDS011;44257;44.804;10.220;2023-07-31T04:20:31;7.80;;;4.38;;
58468;SDS011;44257;44.804;10.220;2023-07-31T04:22:57;7.72;;;5.05;;
58468;SDS011;44257;44.804;10.220;2023-07-31T04:25:24;6.40;;;4.70;;
58468;SDS011;44257;44.804;10.220;2023-07-31T04:27:50;9.82;;;5.32;;
58468;SDS011;44257;44.804;10.220;2023-07-31T04:30:16;6.45;;;4.70;;
58468;SDS011;44257;44.804;10.220;2023-07-31T04:32:41;6.47;;;4.93;;
58468;SDS011;44257;44.804;10.220;2023-07-31T04:35:07;6.13;;;4.40;;
58468;SDS011;44257;44.804;10.220;2023-07-31T04:37:33;6.40;;;4.40;;
58468;SDS011;44257;44.804;10.220;2023-07-31T04:39:59;6.72;;;4.32;;
58468;SDS011;44257;44.804;10.220;2023-07-31T04:42:25;6.47;;;4.63;;
58468;SDS011;44257;44.804;10.220;2023-07-31T04:44:51;6.97;;;4.00;;
58468;SDS011;44257;44.804;10.220;2023-07-31T04:47:18;6.28;;;3.88;;
58468;SDS011;44257;44.804;10.220;2023-07-31T04:49:44;7.68;;;4.82;;
58468;SDS011;44257;44.804;10.220;2023-07-31T04:52:10;5.95;;;4.68;;
58468;SDS011;44257;44.804;10.220;2023-07-31T04:54:36;6.00;;;4.22;;
58468;SDS011;44257;44.804;10.220;2023-07-31T04:57:01;5.55;;;4.25;;
58468;SDS011;44257;44.804;10.220;2023-07-31T04:59:27;6.22;;;4.25;;
58468;SDS011;44257;44.804;10.220;2023-07-31T05:01:53;5.65;;;4.35;;
58468;SDS011;44257;44.804;10.220;2023-07-31T05:04:19;8.38;;;4.50;;
58468;SDS011;44257;44.804;10.220;2023-07-31T05:06:45;6.45;;;4.45;;
58468;SDS011;44257;44.804;10.220;2023-07-31T05:09:10;6.90;;;4.30;;
58468;SDS011;44257;44.804;10.220;2023-07-31T05:11:37;6.90;;;4.53;;
58468;SDS011;44257;44.804;10.220;2023-07-31T05:14:02;5.60;;;3.97;;
58468;SDS011;44257;44.804;10.220;2023-07-31T05:16:28;6.18;;;4.72;;
58468;SDS011;44257;44.804;10.220;2023-07-31T05:18:54;8.13;;;4.45;;
58468;SDS011;44257;44.804;10.220;2023-07-31T05:21:20;6.65;;;4.30;;
58468;SDS011;44257;44.804;10.220;2023-07-31T05:23:45;4.85;;;3.60;;
58468;SDS011;44257;44.804;10.220;2023-07-31T05:26:12;6.25;;;3.90;;
58468;SDS011;44257;44.804;10.220;2023-07-31T05:28:39;10.82;;;4.35;;
58468;SDS011;44257;44.804;10.220;2023-07-31T05:31:05;10.57;;;3.78;;
58468;SDS011;44257;44.804;10.220;2023-07-31T05:33:31;8.30;;;4.22;;
58468;SDS011;44257;44.804;10.220;2023-07-31T05:35:57;10.18;;;3.97;;
58468;SDS011;44257;44.804;10.220;2023-07-31T05:38:23;19.85;;;4.45;;
58468;SDS011;44257;44.804;10.220;2023-07-31T05:40:49;25.20;;;5.32;;
58468;SDS011;44257;44.804;10.220;2023-07-31T05:43:15;16.50;;;5.05;;
58468;SDS011;44257;44.804;10.220;2023-07-31T05:45:44;16.60;;;4.40;;
58468;SDS011;44257;44.804;10.220;2023-07-31T05:48:09;20.65;;;5.28;;
58468;SDS011;44257;44.804;10.220;2023-07-31T05:50:35;14.40;;;5.60;;
58468;SDS011;44257;44.804;10.220;2023-07-31T05:53:04;23.27;;;5.55;;
58468;SDS011;44257;44.804;10.220;2023-07-31T05:55:29;10.40;;;4.60;;
58468;SDS011;44257;44.804;10.220;2023-07-31T05:57:56;9.20;;;4.43;;
58468;SDS011;44257;44.804;10.220;2023-07-31T06:00:21;9.38;;;5.43;;
58468;SDS011;44257;44.804;10.220;2023-07-31T06:02:48;5.95;;;4.78;;
58468;SDS011;44257;44.804;10.220;2023-07-31T06:05:13;8.80;;;4.90;;
58468;SDS011;44257;44.804;10.220;2023-07-31T06:07:39;17.92;;;6.05;;
58468;SDS011;44257;44.804;10.220;2023-07-31T06:10:05;20.50;;;6.95;;
58468;SDS011;44257;44.804;10.220;2023-07-31T06:12:32;22.92;;;5.95;;
58468;SDS011;44257;44.804;10.220;2023-07-31T06:14:58;14.95;;;5.82;;
58468;SDS011;44257;44.804;10.220;2023-07-31T06:17:24;15.98;;;7.07;;
58468;SDS011;44257;44.804;10.220;2023-07-31T06:19:51;10.07;;;6.45;;
58468;SDS011;44257;44.804;10.220;2023-07-31T06:22:17;8.82;;;6.00;;
58468;SDS011;44257;44.804;10.220;2023-07-31T06:24:43;8.82;;;5.90;;
58468;SDS011;44257;44.804;10.220;2023-07-31T06:27:10;9.02;;;5.05;;
58468;SDS011;44257;44.804;10.220;2023-07-31T06:29:36;7.60;;;5.15;;
58468;SDS011;44257;44.804;10.220;2023-07-31T06:32:02;8.07;;;6.20;;
58468;SDS011;44257;44.804;10.220;2023-07-31T06:34:28;7.82;;;5.47;;
58468;SDS011;44257;44.804;10.220;2023-07-31T06:36:55;7.25;;;5.35;;
58468;SDS011;44257;44.804;10.220;2023-07-31T06:39:21;8.73;;;6.05;;
58468;SDS011;44257;44.804;10.220;2023-07-31T06:41:47;7.30;;;5.55;;
58468;SDS011;44257;44.804;10.220;2023-07-31T06:44:13;6.85;;;6.15;;
58468;SDS011;44257;44.804;10.220;2023-07-31T06:46:39;9.30;;;5.95;;
58468;SDS011;44257;44.804;10.220;2023-07-31T06:49:05;8.27;;;6.20;;
58468;SDS011;44257;44.804;10.220;2023-07-31T06:51:30;9.40;;;6.53;;
58468;SDS011;44257;44.804;10.220;2023-07-31T06:53:57;10.57;;;7.13;;
58468;SDS011;44257;44.804;10.220;2023-07-31T06:56:23;8.80;;;6.65;;
58468;SDS011;44257;44.804;10.220;2023-07-31T06:58:49;8.02;;;6.80;;
58468;SDS011;44257;44.804;10.220;2023-07-31T07:01:15;8.00;;;6.85;;
58468;SDS011;44257;44.804;10.220;2023-07-31T07:03:41;10.40;;;6.22;;
58468;SDS011;44257;44.804;10.220;2023-07-31T07:06:07;9.80;;;6.90;;
58468;SDS011;44257;44.804;10.220;2023-07-31T07:08:32;9.68;;;6.18;;
58468;SDS011;44257;44.804;10.220;2023-07-31T07:10:58;8.25;;;6.15;;
58468;SDS011;44257;44.804;10.220;2023-07-31T07:13:24;7.50;;;5.57;;
58468;SDS011;44257;44.804;10.220;2023-07-31T07:15:50;9.32;;;6.13;;
58468;SDS011;44257;44.804;10.220;2023-07-31T07:18:16;7.20;;;4.30;;
58468;SDS011;44257;44.804;10.220;2023-07-31T07:20:46;7.28;;;4.13;;
58468;SDS011;44257;44.804;10.220;2023-07-31T07:23:12;5.28;;;4.00;;
58468;SDS011;44257;44.804;10.220;2023-07-31T07:25:38;7.05;;;3.97;;
58468;SDS011;44257;44.804;10.220;2023-07-31T07:28:04;5.95;;;3.95;;
58468;SDS011;44257;44.804;10.220;2023-07-31T07:30:30;7.63;;;4.13;;
58468;SDS011;44257;44.804;10.220;2023-07-31T07:32:56;7.40;;;4.47;;
58468;SDS011;44257;44.804;10.220;2023-07-31T07:35:21;7.32;;;4.70;;
58468;SDS011;44257;44.804;10.220;2023-07-31T07:37:50;6.95;;;4.70;;
58468;SDS011;44257;44.804;10.220;2023-07-31T07:40:16;5.65;;;4.43;;
58468;SDS011;44257;44.804;10.220;2023-07-31T07:42:42;8.70;;;4.63;;
58468;SDS011;44257;44.804;10.220;2023-07-31T07:45:08;5.53;;;3.65;;
58468;SDS011;44257;44.804;10.220;2023-07-31T07:47:34;4.53;;;3.92;;
58468;SDS011;44257;44.804;10.220;2023-07-31T07:50:00;7.15;;;3.85;;
58468;SDS011;44257;44.804;10.220;2023-07-31T07:52:25;9.15;;;5.18;;
58468;SDS011;44257;44.804;10.220;2023-07-31T07:54:51;5.85;;;4.00;;
58468;SDS011;44257;44.804;10.220;2023-07-31T07:57:17;6.25;;;4.30;;
58468;SDS011;44257;44.804;10.220;2023-07-31T07:59:43;6.93;;;4.45;;
58468;SDS011;44257;44.804;10.220;2023-07-31T08:02:09;7.80;;;5.07;;
58468;SDS011;44257;44.804;10.220;2023-07-31T08:04:35;7.38;;;4.85;;
58468;SDS011;44257;44.804;10.220;2023-07-31T08:07:01;7.68;;;3.95;;
58468;SDS011;44257;44.804;10.220;2023-07-31T08:09:27;7.63;;;5.13;;
58468;SDS011;44257;44.804;10.220;2023-07-31T08:11:52;7.85;;;4.43;;
58468;SDS011;44257;44.804;10.220;2023-07-31T08:14:19;5.22;;;4.45;;
58468;SDS011;44257;44.804;10.220;2023-07-31T08:16:45;6.53;;;4.82;;
58468;SDS011;44257;44.804;10.220;2023-07-31T08:19:11;12.90;;;5.10;;
58468;SDS011;44257;44.804;10.220;2023-07-31T08:21:36;7.70;;;4.97;;
58468;SDS011;44257;44.804;10.220;2023-07-31T08:24:02;27.77;;;6.18;;
58468;SDS011;44257;44.804;10.220;2023-07-31T08:26:28;7.43;;;5.07;;
58468;SDS011;44257;44.804;10.220;2023-07-31T08:28:54;6.50;;;4.53;;
58468;SDS011;44257;44.804;10.220;2023-07-31T08:31:20;6.63;;;4.53;;
58468;SDS011;44257;44.804;10.220;2023-07-31T08:33:45;6.57;;;5.00;;
58468;SDS011;44257;44.804;10.220;2023-07-31T08:36:11;8.45;;;5.40;;
58468;SDS011;44257;44.804;10.220;2023-07-31T08:38:37;7.20;;;5.03;;
58468;SDS011;44257;44.804;10.220;2023-07-31T08:41:03;6.82;;;5.13;;
58468;SDS011;44257;44.804;10.220;2023-07-31T08:45:58;9.52;;;5.47;;
58468;SDS011;44257;44.804;10.220;2023-07-31T08:48:25;8.40;;;6.10;;
58468;SDS011;44257;44.804;10.220;2023-07-31T08:50:51;7.90;;;5.35;;
58468;SDS011;44257;44.804;10.220;2023-07-31T08:53:18;6.85;;;4.72;;
58468;SDS011;44257;44.804;10.220;2023-07-31T08:55:44;7.10;;;5.20;;
58468;SDS011;44257;44.804;10.220;2023-07-31T08:58:10;6.60;;;4.95;;
58468;SDS011;44257;44.804;10.220;2023-07-31T09:00:39;6.60;;;4.55;;
58468;SDS011;44257;44.804;10.220;2023-07-31T09:03:09;5.05;;;3.70;;
58468;SDS011;44257;44.804;10.220;2023-07-31T09:05:38;6.10;;;4.80;;
58468;SDS011;44257;44.804;10.220;2023-07-31T09:08:07;5.57;;;4.03;;
58468;SDS011;44257;44.804;10.220;2023-07-31T09:10:35;5.38;;;4.07;;
58468;SDS011;44257;44.804;10.220;2023-07-31T09:13:09;6.15;;;4.40;;
58468;SDS011;44257;44.804;10.220;2023-07-31T09:15:36;6.05;;;3.80;;
58468;SDS011;44257;44.804;10.220;2023-07-31T09:18:03;6.03;;;4.15;;
58468;SDS011;44257;44.804;10.220;2023-07-31T09:20:30;4.80;;;3.75;;
58468;SDS011;44257;44.804;10.220;2023-07-31T09:23:09;4.68;;;3.72;;
58468;SDS011;44257;44.804;10.220;2023-07-31T09:25:36;3.97;;;2.85;;
58468;SDS011;44257;44.804;10.220;2023-07-31T09:28:04;6.57;;;3.10;;
58468;SDS011;44257;44.804;10.220;2023-07-31T09:30:49;5.15;;;2.83;;
58468;SDS011;44257;44.804;10.220;2023-07-31T09:33:16;5.28;;;2.80;;
58468;SDS011;44257;44.804;10.220;2023-07-31T09:35:43;4.78;;;2.40;;
58468;SDS011;44257;44.804;10.220;2023-07-31T09:38:10;3.40;;;2.17;;
58468;SDS011;44257;44.804;10.220;2023-07-31T09:40:42;3.35;;;1.90;;
58468;SDS011;44257;44.804;10.220;2023-07-31T09:43:11;3.72;;;2.40;;
58468;SDS011;44257;44.804;10.220;2023-07-31T09:45:39;3.15;;;2.20;;
58468;SDS011;44257;44.804;10.220;2023-07-31T09:48:11;3.70;;;1.92;;
58468;SDS011;44257;44.804;10.220;2023-07-31T09:50:38;3.45;;;2.15;;
58468;SDS011;44257;44.804;10.220;2023-07-31T09:53:06;4.15;;;2.08;;
58468;SDS011;44257;44.804;10.220;2023-07-31T09:55:33;5.38;;;2.42;;
58468;SDS011;44257;44.804;10.220;2023-07-31T09:57:59;3.40;;;2.42;;
58468;SDS011;44257;44.804;10.220;2023-07-31T10:00:32;3.45;;;2.53;;
58468;SDS011;44257;44.804;10.220;2023-07-31T10:03:00;5.57;;;2.70;;
58468;SDS011;44257;44.804;10.220;2023-07-31T10:05:46;5.80;;;3.28;;
58468;SDS011;44257;44.804;10.220;2023-07-31T10:08:16;3.88;;;2.90;;
58468;SDS011;44257;44.804;10.220;2023-07-31T10:10:45;3.92;;;2.42;;
58468;SDS011;44257;44.804;10.220;2023-07-31T10:13:11;3.75;;;2.97;;
58468;SDS011;44257;44.804;10.220;2023-07-31T10:15:38;4.93;;;3.42;;
58468;SDS011;44257;44.804;10.220;2023-07-31T10:18:06;5.13;;;4.00;;
58468;SDS011;44257;44.804;10.220;2023-07-31T10:20:32;10.45;;;4.72;;
58468;SDS011;44257;44.804;10.220;2023-07-31T10:22:59;4.88;;;4.05;;
58468;SDS011;44257;44.804;10.220;2023-07-31T10:25:26;3.97;;;3.15;;
58468;SDS011;44257;44.804;10.220;2023-07-31T10:27:53;6.38;;;4.82;;
58468;SDS011;44257;44.804;10.220;2023-07-31T10:30:24;5.53;;;4.13;;
58468;SDS011;44257;44.804;10.220;2023-07-31T10:32:53;5.03;;;4.20;;
58468;SDS011;44257;44.804;10.220;2023-07-31T10:35:19;4.78;;;3.38;;
58468;SDS011;44257;44.804;10.220;2023-07-31T10:37:47;4.65;;;3.58;;
58468;SDS011;44257;44.804;10.220;2023-07-31T10:40:23;3.92;;;3.10;;
58468;SDS011;44257;44.804;10.220;2023-07-31T10:42:52;6.45;;;5.75;;
58468;SDS011;44257;44.804;10.220;2023-07-31T10:45:35;5.22;;;4.15;;
58468;SDS011;44257;44.804;10.220;2023-07-31T10:48:12;6.03;;;3.58;;
58468;SDS011;44257;44.804;10.220;2023-07-31T10:50:47;7.80;;;4.78;;
58468;SDS011;44257;44.804;10.220;2023-07-31T10:56:11;6.70;;;4.55;;
58468;SDS011;44257;44.804;10.220;2023-07-31T10:58:39;5.40;;;4.25;;
58468;SDS011;44257;44.804;10.220;2023-07-31T11:01:05;6.18;;;3.95;;
58468;SDS011;44257;44.804;10.220;2023-07-31T11:06:35;4.82;;;3.47;;
58468;SDS011;44257;44.804;10.220;2023-07-31T11:09:02;5.68;;;3.83;;
58468;SDS011;44257;44.804;10.220;2023-07-31T11:11:28;6.25;;;4.78;;
58468;SDS011;44257;44.804;10.220;2023-07-31T11:13:54;6.32;;;4.60;;
58468;SDS011;44257;44.804;10.220;2023-07-31T11:16:22;5.60;;;4.80;;
58468;SDS011;44257;44.804;10.220;2023-07-31T11:18:49;5.47;;;4.90;;
58468;SDS011;44257;44.804;10.220;2023-07-31T11:21:17;6.25;;;4.00;;
58468;SDS011;44257;44.804;10.220;2023-07-31T11:23:48;4.20;;;3.80;;
58468;SDS011;44257;44.804;10.220;2023-07-31T11:26:16;5.47;;;3.60;;
58468;SDS011;44257;44.804;10.220;2023-07-31T11:28:42;5.55;;;3.60;;
58468;SDS011;44257;44.804;10.220;2023-07-31T11:31:09;5.78;;;3.30;;
58468;SDS011;44257;44.804;10.220;2023-07-31T11:33:36;5.40;;;3.42;;
58468;SDS011;44257;44.804;10.220;2023-07-31T11:36:02;4.78;;;3.30;;
58468;SDS011;44257;44.804;10.220;2023-07-31T11:38:28;5.55;;;3.30;;
58468;SDS011;44257;44.804;10.220;2023-07-31T11:40:56;7.25;;;3.88;;
58468;SDS011;44257;44.804;10.220;2023-07-31T11:43:24;6.30;;;3.92;;
58468;SDS011;44257;44.804;10.220;2023-07-31T11:45:52;5.55;;;4.22;;
58468;SDS011;44257;44.804;10.220;2023-07-31T11:48:26;5.53;;;3.90;;
58468;SDS011;44257;44.804;10.220;2023-07-31T11:50:56;5.65;;;3.70;;
58468;SDS011;44257;44.804;10.220;2023-07-31T11:56:12;4.60;;;4.15;;
58468;SDS011;44257;44.804;10.220;2023-07-31T11:58:39;5.55;;;4.53;;
58468;SDS011;44257;44.804;10.220;2023-07-31T12:01:06;5.85;;;4.40;;
58468;SDS011;44257;44.804;10.220;2023-07-31T12:03:33;4.30;;;3.30;;
58468;SDS011;44257;44.804;10.220;2023-07-31T12:06:00;4.35;;;3.22;;
58468;SDS011;44257;44.804;10.220;2023-07-31T12:08:26;4.68;;;3.78;;
58468;SDS011;44257;44.804;10.220;2023-07-31T12:10:52;4.10;;;3.70;;
58468;SDS011;44257;44.804;10.220;2023-07-31T12:13:25;4.93;;;4.28;;
58468;SDS011;44257;44.804;10.220;2023-07-31T12:15:55;5.68;;;4.10;;
58468;SDS011;44257;44.804;10.220;2023-07-31T12:18:23;7.07;;;4.47;;
58468;SDS011;44257;44.804;10.220;2023-07-31T12:20:54;6.95;;;4.70;;
58468;SDS011;44257;44.804;10.220;2023-07-31T12:23:26;5.50;;;4.55;;
58468;SDS011;44257;44.804;10.220;2023-07-31T12:26:00;4.95;;;4.15;;
58468;SDS011;44257;44.804;10.220;2023-07-31T12:28:27;5.70;;;4.25;;
58468;SDS011;44257;44.804;10.220;2023-07-31T12:30:56;5.15;;;3.97;;
58468;SDS011;44257;44.804;10.220;2023-07-31T12:33:36;4.60;;;3.83;;
58468;SDS011;44257;44.804;10.220;2023-07-31T12:36:07;5.88;;;3.63;;
58468;SDS011;44257;44.804;10.220;2023-07-31T12:38:35;6.90;;;4.40;;
58468;SDS011;44257;44.804;10.220;2023-07-31T12:41:01;4.53;;;4.03;;
58468;SDS011;44257;44.804;10.220;2023-07-31T12:43:27;6.20;;;3.85;;
58468;SDS011;44257;44.804;10.220;2023-07-31T12:45:56;5.20;;;3.92;;
58468;SDS011;44257;44.804;10.220;2023-07-31T12:48:21;7.20;;;4.20;;
58468;SDS011;44257;44.804;10.220;2023-07-31T12:50:47;5.63;;;4.05;;
58468;SDS011;44257;44.804;10.220;2023-07-31T12:53:14;5.60;;;3.47;;
58468;SDS011;44257;44.804;10.220;2023-07-31T12:55:40;4.43;;;3.90;;
58468;SDS011;44257;44.804;10.220;2023-07-31T12:58:06;4.97;;;3.67;;
58468;SDS011;44257;44.804;10.220;2023-07-31T13:00:32;5.07;;;3.72;;
58468;SDS011;44257;44.804;10.220;2023-07-31T13:02:58;5.85;;;4.20;;
58468;SDS011;44257;44.804;10.220;2023-07-31T13:05:25;5.88;;;3.70;;
58468;SDS011;44257;44.804;10.220;2023-07-31T13:07:54;5.43;;;3.38;;
58468;SDS011;44257;44.804;10.220;2023-07-31T13:10:20;4.40;;;3.70;;
58468;SDS011;44257;44.804;10.220;2023-07-31T13:12:47;5.38;;;3.58;;
58468;SDS011;44257;44.804;10.220;2023-07-31T13:15:13;4.70;;;3.92;;
58468;SDS011;44257;44.804;10.220;2023-07-31T13:17:39;4.72;;;3.60;;
58468;SDS011;44257;44.804;10.220;2023-07-31T13:20:05;5.57;;;3.67;;
58468;SDS011;44257;44.804;10.220;2023-07-31T13:22:32;5.28;;;3.45;;
58468;SDS011;44257;44.804;10.220;2023-07-31T13:24:58;5.30;;;3.90;;
58468;SDS011;44257;44.804;10.220;2023-07-31T13:27:23;5.78;;;3.97;;
58468;SDS011;44257;44.804;10.220;2023-07-31T13:29:50;7.18;;;3.72;;
58468;SDS011;44257;44.804;10.220;2023-07-31T13:32:19;5.93;;;3.80;;
58468;SDS011;44257;44.804;10.220;2023-07-31T13:34:46;4.85;;;4.30;;
58468;SDS011;44257;44.804;10.220;2023-07-31T13:37:12;4.72;;;3.60;;
58468;SDS011;44257;44.804;10.220;2023-07-31T13:39:38;4.88;;;3.33;;
58468;SDS011;44257;44.804;10.220;2023-07-31T13:42:05;6.10;;;3.63;;
58468;SDS011;44257;44.804;10.220;2023-07-31T13:44:36;6.25;;;3.40;;
58468;SDS011;44257;44.804;10.220;2023-07-31T13:47:02;5.07;;;3.83;;
58468;SDS011;44257;44.804;10.220;2023-07-31T13:49:29;6.40;;;3.88;;
58468;SDS011;44257;44.804;10.220;2023-07-31T13:51:55;4.30;;;3.25;;
58468;SDS011;44257;44.804;10.220;2023-07-31T13:54:22;5.05;;;3.30;;
58468;SDS011;44257;44.804;10.220;2023-07-31T13:56:48;5.68;;;3.22;;
58468;SDS011;44257;44.804;10.220;2023-07-31T13:59:14;5.60;;;3.83;;
58468;SDS011;44257;44.804;10.220;2023-07-31T14:01:42;3.88;;;3.47;;
58468;SDS011;44257;44.804;10.220;2023-07-31T14:04:08;10.32;;;3.35;;
58468;SDS011;44257;44.804;10.220;2023-07-31T14:06:34;3.72;;;3.33;;
58468;SDS011;44257;44.804;10.220;2023-07-31T14:09:00;6.63;;;3.60;;
58468;SDS011;44257;44.804;10.220;2023-07-31T14:11:26;4.75;;;3.47;;
58468;SDS011;44257;44.804;10.220;2023-07-31T14:13:52;4.95;;;3.53;;
58468;SDS011;44257;44.804;10.220;2023-07-31T14:16:18;6.00;;;3.80;;
58468;SDS011;44257;44.804;10.220;2023-07-31T14:18:44;7.13;;;3.45;;
58468;SDS011;44257;44.804;10.220;2023-07-31T14:21:12;7.18;;;3.72;;
58468;SDS011;44257;44.804;10.220;2023-07-31T14:23:39;4.55;;;4.05;;
58468;SDS011;44257;44.804;10.220;2023-07-31T14:26:05;6.95;;;4.63;;
58468;SDS011;44257;44.804;10.220;2023-07-31T14:28:31;4.63;;;3.92;;
58468;SDS011;44257;44.804;10.220;2023-07-31T14:30:57;5.78;;;4.20;;
58468;SDS011;44257;44.804;10.220;2023-07-31T14:33:23;5.57;;;4.20;;
58468;SDS011;44257;44.804;10.220;2023-07-31T14:35:48;5.00;;;3.65;;
58468;SDS011;44257;44.804;10.220;2023-07-31T14:38:14;4.22;;;3.45;;
58468;SDS011;44257;44.804;10.220;2023-07-31T14:40:41;4.05;;;3.42;;
58468;SDS011;44257;44.804;10.220;2023-07-31T14:43:07;6.88;;;3.85;;
58468;SDS011;44257;44.804;10.220;2023-07-31T14:45:33;6.13;;;3.92;;
58468;SDS011;44257;44.804;10.220;2023-07-31T14:47:58;5.63;;;3.63;;
58468;SDS011;44257;44.804;10.220;2023-07-31T14:50:25;5.20;;;3.63;;